Weather at Aerodromo Municipal de Coimbra

Public forecast

Using degrees Celsius for public forecast. Weather courtesy of forecast.io.

Closest aviation weather report (METAR) to Aerodromo Municipal de Coimbra

Closest report is Monte Real Air Base, 27.6 nm (51.1 km) SW.

2024/05/25 16:00 (retrieved 1 hour ago)

LPMR 251600Z 29008KT 260V320 CAVOK 20/10 Q1019

Closest aviation forecast (TAF) to Aerodromo Municipal de Coimbra

Closest forecast is Monte Real Air Base, 27.6 nm (51.1 km) SW.

2024/05/25 12:21 (retrieved 5 hours ago)

TAF TAF LPMR 251101Z 2512/2612 33008KT 9999 FEW022 BECMG 2520/2523 VRB02KT SCT006 BKN012 TEMPO 2523/2608 2000 -DZ BR BKN002 BECMG 2602/2604 34008KT BECMG 2607/2610 SCT025